This is the latest recevied weather packets stored in our database for station/object KG6QHD-13. If no packets are shown the sender has not sent any weather packets the latest 10 day(s).
| Time | Temp. | Humidity | Pressure | Rain* | Wind** | Luminosity | Snow |
|---|---|---|---|---|---|---|---|
| 1777584344 | 2.22° C | 84% | 1021.4 hPa | 0 mm | - | 265 W/m² | - |
| 1777583754 | 2.22° C | 84% | 1021.5 hPa | 0 mm | - | 290 W/m² | - |
| 1777583146 | 1.67° C | 84% | 1021.5 hPa | 0 mm | - | 257 W/m² | - |
| 1777582867 | 1.67° C | 85% | 1021.4 hPa | 0 mm | - | 246 W/m² | - |
| 1777581053 | 1.67° C | 86% | 1021.4 hPa | 0 mm | - | 165 W/m² | - |
| 1777579252 | 1.67° C | 85% | 1021.4 hPa | 0 mm | - | 178 W/m² | - |
| 1777578349 | 1.67° C | 84% | 1021.6 hPa | 0 mm | - | 158 W/m² | - |
| 1777575652 | 1.67° C | 83% | 1021.8 hPa | 0 mm | - | 190 W/m² | - |
| 1777575046 | 1.67° C | 84% | 1021.8 hPa | 0 mm | - | 188 W/m² | - |
| 1777573866 | 1.67° C | 85% | 1021.9 hPa | 0 mm | - | 202 W/m² | - |
| 1777573245 | 1.11° C | 86% | 1021.9 hPa | 0 mm | - | 206 W/m² | - |
| 1777570254 | 1.11° C | 86% | 1022.3 hPa | 1.02 mm | - | 229 W/m² | - |
| 1777569048 | 1.67° C | 86% | 1022.1 hPa | 1.78 mm | - | 292 W/m² | - |
| 1777568149 | 1.11° C | 85% | 1022.2 hPa | 2.29 mm | - | 304 W/m² | - |
| 1777567848 | 1.11° C | 85% | 1022.1 hPa | 2.29 mm | - | 301 W/m² | - |
| 1777564849 | 1.67° C | 80% | 1022 hPa | 3.3 mm | - | 274 W/m² | - |
| 1777562452 | 1.11° C | 84% | 1021.9 hPa | 2.54 mm | - | 153 W/m² | - |
| 1777561263 | 1.11° C | 85% | 1022 hPa | 2.03 mm | - | 111 W/m² | - |
| 1777560648 | 1.11° C | 86% | 1022 hPa | 2.03 mm | - | 60 W/m² | - |
| 1777560044 | 1.11° C | 87% | 1022.1 hPa | 1.78 mm | - | 39 W/m² | - |
| 1777559148 | 1.11° C | 88% | 1022.2 hPa | 2.29 mm | - | 28 W/m² | - |
| 1777557049 | 1.11° C | 90% | 1022.2 hPa | 1.02 mm | - | 28 W/m² | - |
| 1777556449 | 1.11° C | 90% | 1022 hPa | 0.76 mm | - | 23 W/m² | - |
| 1777554052 | 0° C | 93% | 1021.6 hPa | 0 mm | - | 21 W/m² | - |
| 1777551045 | 0° C | 93% | 1021.2 hPa | 0.25 mm | - | 0 W/m² | - |
* Rain latest hour (hover to see other rain measurements)
** Current wind speed in m/s (hover to see current wind gust speed)